createdAt,value
2023-03-15T00:08:26.508Z,24.71
2023-03-15T00:35:25.636Z,24.69
2023-03-15T00:36:27.173Z,24.69
2023-03-15T00:38:48.019Z,24.73
2023-03-15T00:41:03.896Z,24.72
2023-03-15T00:43:39.174Z,24.69
2023-03-15T00:44:39.484Z,24.71
2023-03-15T00:47:36.383Z,24.69
2023-03-15T00:50:03.047Z,24.71
2023-03-15T00:56:16.738Z,24.66
2023-03-15T00:58:34.469Z,24.66
2023-03-15T01:00:53.457Z,24.65
2023-03-15T01:01:53.620Z,24.66
2023-03-15T01:02:54.320Z,24.68
2023-03-15T01:03:53.039Z,24.66
2023-03-15T01:04:53.074Z,24.68
2023-03-15T01:05:52.920Z,24.68
2023-03-15T02:40:15.875Z,24.59
2023-03-15T02:41:14.765Z,24.59
2023-03-15T02:42:14.104Z,24.61
2023-03-15T02:43:14.150Z,24.62
2023-03-15T02:44:15.637Z,24.61
2023-03-15T02:48:52.095Z,24.61
2023-03-15T02:55:44.768Z,24.61
2023-03-15T03:01:04.295Z,24.63
2023-03-15T03:42:46.793Z,24.55
2023-03-15T03:43:46.859Z,24.56
2023-03-15T03:44:46.763Z,24.58
2023-03-15T03:45:46.604Z,24.56
2023-03-15T03:53:59.258Z,24.58
2023-03-15T03:54:59.408Z,24.56
2023-03-15T03:55:59.460Z,24.56
2023-03-15T03:56:59.282Z,24.58
2023-03-15T04:03:56.316Z,24.55
2023-03-15T04:04:57.796Z,24.61
2023-03-15T04:37:47.478Z,24.89
2023-03-15T04:40:46.018Z,24.83
2023-03-15T04:43:05.221Z,24.79
2023-03-15T04:44:05.238Z,24.81
2023-03-15T04:46:25.061Z,24.76
2023-03-15T04:48:43.122Z,24.75
2023-03-15T04:49:42.841Z,24.73
2023-03-15T04:50:42.810Z,24.78
2023-03-15T04:58:58.952Z,24.72
2023-03-15T04:59:58.772Z,24.75
2023-03-15T05:00:58.685Z,24.75
2023-03-15T05:01:58.404Z,24.76
2023-03-15T05:02:58.357Z,24.76
2023-03-15T05:03:58.376Z,24.76
2023-03-15T05:12:48.261Z,24.75
2023-03-15T05:40:50.625Z,24.78
2023-03-15T06:42:46.250Z,19.44
2023-03-15T06:43:46.747Z,19.30
2023-03-15T06:47:44.477Z,18.91
2023-03-15T07:27:03.655Z,23.74
2023-03-15T07:31:40.921Z,23.97
2023-03-15T07:50:33.516Z,24.52
2023-03-15T07:51:33.245Z,24.55
2023-03-15T07:52:33.739Z,24.59
2023-03-15T07:53:33.432Z,24.59
2023-03-15T08:04:19.196Z,24.58
2023-03-15T08:26:41.949Z,25.03
2023-03-15T08:34:18.740Z,24.86
2023-03-15T08:35:18.837Z,24.75
2023-03-15T08:36:18.726Z,24.51
2023-03-15T08:38:38.861Z,23.96
2023-03-15T09:03:49.111Z,24.92
2023-03-15T09:35:08.020Z,24.47
2023-03-15T09:36:09.462Z,24.39
2023-03-15T09:39:47.873Z,24.21
2023-03-15T10:04:03.993Z,24.83
2023-03-15T10:11:53.649Z,25.11
2023-03-15T10:14:44.320Z,25.16
2023-03-15T10:17:12.210Z,25.17
2023-03-15T10:18:02.805Z,24.87
2023-03-15T10:19:02.777Z,23.96
2023-03-15T10:20:02.728Z,23.56
2023-03-15T10:23:23.350Z,23.59
2023-03-15T10:40:09.872Z,24.97
2023-03-15T10:43:46.793Z,24.99
2023-03-15T10:44:46.801Z,25.03
2023-03-15T10:45:46.803Z,25.00
2023-03-15T10:46:48.857Z,25.05
2023-03-15T10:50:46.774Z,25.14
2023-03-15T10:53:04.743Z,25.05
2023-03-15T10:54:04.489Z,25.06
2023-03-15T10:55:04.969Z,25.06
2023-03-15T11:18:33.896Z,25.47
2023-03-15T11:27:44.468Z,25.51
2023-03-15T11:33:49.998Z,25.51
2023-03-15T11:36:07.727Z,25.50
2023-03-15T11:37:09.106Z,25.54
2023-03-15T11:40:11.569Z,25.24
2023-03-15T11:44:06.746Z,24.28
2023-03-15T11:45:07.111Z,24.08
2023-03-15T11:46:06.956Z,23.84
2023-03-15T11:47:06.686Z,23.87
2023-03-15T11:48:06.683Z,23.86
2023-03-15T11:49:06.686Z,23.91
2023-03-15T11:50:06.701Z,23.99
2023-03-15T11:51:06.766Z,24.07
2023-03-15T11:52:06.804Z,24.14
2023-03-15T11:53:06.832Z,24.25
2023-03-15T11:54:06.836Z,24.36
2023-03-15T11:55:06.822Z,24.47
2023-03-15T11:56:06.985Z,24.52
2023-03-15T13:50:48.231Z,25.68
2023-03-15T13:51:48.228Z,25.68
2023-03-15T13:52:47.821Z,25.69
2023-03-15T13:53:50.181Z,25.68
2023-03-15T13:54:47.601Z,25.69
2023-03-15T13:55:47.554Z,25.68
2023-03-15T13:56:49.843Z,25.69
2023-03-15T13:57:47.561Z,25.69
2023-03-15T13:58:47.583Z,25.69
2023-03-15T13:59:47.635Z,25.67
2023-03-15T14:00:47.648Z,25.65
2023-03-15T14:01:47.834Z,25.67
2023-03-15T14:56:44.441Z,25.54
2023-03-15T14:57:42.356Z,25.55
2023-03-15T15:10:00.008Z,25.58
2023-03-15T15:11:00.071Z,25.51
2023-03-15T15:13:06.406Z,25.47
2023-03-15T15:14:59.911Z,25.44
2023-03-15T15:15:59.993Z,25.47
2023-03-15T15:16:59.938Z,25.48
2023-03-15T15:19:18.996Z,25.45
2023-03-15T15:20:19.032Z,25.48
2023-03-15T15:21:19.060Z,25.36
2023-03-15T15:29:06.257Z,25.38
2023-03-15T15:30:06.301Z,25.33
2023-03-15T15:31:06.328Z,25.33
2023-03-15T15:32:06.407Z,25.31
2023-03-15T15:33:06.477Z,25.34
2023-03-15T16:21:20.225Z,24.81
2023-03-15T16:22:20.028Z,24.78
2023-03-15T16:23:20.061Z,24.79
2023-03-15T16:27:05.933Z,24.73
2023-03-15T16:28:05.332Z,24.72
2023-03-15T16:29:05.571Z,24.68
2023-03-15T16:30:05.456Z,24.66
2023-03-15T16:35:44.749Z,24.55
2023-03-15T16:38:13.713Z,24.47
2023-03-15T17:00:05.305Z,24.73
2023-03-15T17:14:23.242Z,24.86
2023-03-15T17:15:23.013Z,24.87
2023-03-15T17:16:23.116Z,24.89
2023-03-15T17:17:23.153Z,24.90
2023-03-15T17:18:23.263Z,24.90
2023-03-15T17:19:23.518Z,24.90
2023-03-15T17:20:23.200Z,24.94
2023-03-15T17:21:23.211Z,24.94
2023-03-15T17:22:23.271Z,24.97
2023-03-15T17:23:23.243Z,25.00
2023-03-15T17:24:23.244Z,25.02
2023-03-15T17:25:23.270Z,25.03
2023-03-15T17:26:23.338Z,25.05
2023-03-15T17:27:23.385Z,25.05
2023-03-15T17:28:23.328Z,25.07
2023-03-15T17:29:23.361Z,25.09
2023-03-15T17:30:23.433Z,25.11
2023-03-15T17:31:25.299Z,25.10
2023-03-15T17:32:23.657Z,25.10
2023-03-15T17:33:23.596Z,25.10
2023-03-15T17:34:23.727Z,25.13
2023-03-15T17:35:23.688Z,25.13
2023-03-15T17:36:23.786Z,25.13
2023-03-15T17:37:24.002Z,25.13
2023-03-15T17:38:23.931Z,25.16
2023-03-15T17:52:03.390Z,25.09
2023-03-15T17:53:03.181Z,25.10
2023-03-15T17:54:03.279Z,25.09
2023-03-15T17:55:03.271Z,25.07
2023-03-15T17:56:03.332Z,25.10
2023-03-15T17:57:03.226Z,25.09
2023-03-15T17:58:03.197Z,25.11
2023-03-15T17:59:03.140Z,25.10
2023-03-15T18:00:03.139Z,25.10
2023-03-15T18:01:03.176Z,25.10
2023-03-15T18:02:03.171Z,25.10
2023-03-15T18:03:03.152Z,25.11
2023-03-15T18:04:03.199Z,25.10
2023-03-15T18:05:03.125Z,25.09
2023-03-15T18:06:03.104Z,25.11
2023-03-15T18:07:03.117Z,25.13
2023-03-15T18:08:03.094Z,25.13
2023-03-15T18:09:03.138Z,25.11
2023-03-15T18:10:03.071Z,25.14
2023-03-15T18:11:03.056Z,25.11
2023-03-15T18:12:03.132Z,25.14
2023-03-15T18:13:03.112Z,25.16
2023-03-15T18:14:03.173Z,25.14
2023-03-15T18:15:03.194Z,25.17
2023-03-15T18:16:03.344Z,25.17
2023-03-15T18:17:03.384Z,25.17
2023-03-15T18:18:06.114Z,25.17
2023-03-15T18:19:03.400Z,25.16
2023-03-15T18:20:03.395Z,25.16
2023-03-15T18:21:03.345Z,25.19
2023-03-15T18:22:03.401Z,25.20
2023-03-15T18:23:03.402Z,25.19
2023-03-15T18:24:03.370Z,25.20
2023-03-15T18:25:03.348Z,25.19
2023-03-15T18:26:03.343Z,25.21
2023-03-15T18:27:03.336Z,25.20
2023-03-15T18:28:03.311Z,25.23
2023-03-15T18:35:35.554Z,25.21
2023-03-15T18:36:35.445Z,25.21
2023-03-15T18:51:17.876Z,25.14
2023-03-15T19:00:20.216Z,25.00
2023-03-15T19:01:20.055Z,24.97
2023-03-15T19:02:20.011Z,24.96
2023-03-15T19:03:19.998Z,24.93
2023-03-15T19:04:19.977Z,24.93
2023-03-15T19:05:20.039Z,24.92
2023-03-15T19:06:20.000Z,24.87
2023-03-15T19:07:19.973Z,24.89
2023-03-15T19:08:19.989Z,24.89
2023-03-15T19:09:19.949Z,24.85
2023-03-15T19:10:19.963Z,24.90
2023-03-15T19:11:19.962Z,24.89
2023-03-15T19:12:19.951Z,24.90
2023-03-15T19:13:19.938Z,24.92
2023-03-15T19:14:19.911Z,24.93
2023-03-15T19:15:19.940Z,24.94
2023-03-15T19:16:20.116Z,24.94
2023-03-15T19:17:19.948Z,24.97
2023-03-15T19:18:19.861Z,24.99
2023-03-15T19:19:19.871Z,24.99
2023-03-15T19:20:19.853Z,25.00
2023-03-15T19:21:19.893Z,25.00
2023-03-15T19:22:19.852Z,25.03
2023-03-15T19:23:19.808Z,25.03
2023-03-15T19:24:19.835Z,25.05
2023-03-15T19:25:19.913Z,25.05
2023-03-15T19:26:19.824Z,25.05
2023-03-15T19:27:19.810Z,25.03
2023-03-15T19:28:19.858Z,25.07
2023-03-15T19:29:19.782Z,25.06
2023-03-15T19:30:19.783Z,25.06
2023-03-15T19:31:19.848Z,25.09
2023-03-15T19:32:19.843Z,25.07
2023-03-15T19:33:19.761Z,25.10
2023-03-15T19:34:19.737Z,25.10
2023-03-15T19:35:19.782Z,25.10
2023-03-15T19:36:19.815Z,25.13
2023-03-15T19:37:19.739Z,25.10
2023-03-15T19:38:19.684Z,25.11
2023-03-15T19:39:19.711Z,25.11
2023-03-15T19:40:19.784Z,25.14
2023-03-15T19:41:19.690Z,25.10
2023-03-15T19:42:19.694Z,25.10
2023-03-15T19:43:19.700Z,25.13
2023-03-15T19:44:19.725Z,25.13
2023-03-15T19:45:19.716Z,25.13
2023-03-15T19:46:19.884Z,25.13
2023-03-15T19:47:19.764Z,25.14
2023-03-15T19:48:19.776Z,25.14
2023-03-15T19:49:19.776Z,25.13
2023-03-15T19:50:19.838Z,25.14
2023-03-15T19:51:19.852Z,25.13
2023-03-15T19:52:19.956Z,25.14
2023-03-15T19:53:19.902Z,25.14
2023-03-15T20:01:08.961Z,25.07
2023-03-15T20:07:10.092Z,25.05
2023-03-15T20:08:09.884Z,25.03
2023-03-15T20:09:09.902Z,25.03
2023-03-15T20:10:09.993Z,25.06
2023-03-15T20:11:09.935Z,25.02
2023-03-15T20:14:25.607Z,25.02
2023-03-15T20:15:26.931Z,25.00
2023-03-15T20:16:25.944Z,24.99
2023-03-15T20:17:25.780Z,25.02
2023-03-15T20:18:25.869Z,25.00
2023-03-15T20:19:25.883Z,25.05
2023-03-15T20:20:26.013Z,25.05
2023-03-15T20:21:25.930Z,25.06
2023-03-15T20:22:25.892Z,25.06
2023-03-15T20:23:25.928Z,25.09
2023-03-15T20:24:25.874Z,25.06
2023-03-15T20:25:25.923Z,25.09
2023-03-15T20:26:25.871Z,25.09
2023-03-15T20:31:04.017Z,25.05
2023-03-15T20:32:03.702Z,25.07
2023-03-15T20:33:03.841Z,25.10
2023-03-15T20:34:03.704Z,25.11
2023-03-15T20:35:03.701Z,25.09
2023-03-15T20:36:03.737Z,25.11
2023-03-15T20:37:03.730Z,25.09
2023-03-15T20:38:03.700Z,25.13
2023-03-15T20:39:03.699Z,25.11
2023-03-15T20:40:03.771Z,25.10
2023-03-15T20:41:03.677Z,25.13
2023-03-15T20:42:03.823Z,25.11
2023-03-15T20:43:03.766Z,25.09
2023-03-15T20:44:03.808Z,25.13
2023-03-15T20:45:03.602Z,25.11
2023-03-15T20:46:03.615Z,25.13
2023-03-15T20:48:22.645Z,25.10
2023-03-15T20:49:22.501Z,25.13
2023-03-15T20:50:22.706Z,25.13
2023-03-15T20:51:22.451Z,25.14
2023-03-15T20:52:22.483Z,25.16
2023-03-15T20:53:22.458Z,25.13
2023-03-15T20:54:22.427Z,25.14
2023-03-15T20:55:22.449Z,25.14
2023-03-15T20:56:22.379Z,25.14
2023-03-15T20:57:22.385Z,25.14
2023-03-15T20:58:22.426Z,25.19
2023-03-15T20:59:22.414Z,25.17
2023-03-15T21:00:22.757Z,25.16
2023-03-15T21:01:22.612Z,25.14
2023-03-15T21:02:22.446Z,25.16
2023-03-15T21:03:22.384Z,25.16
2023-03-15T21:12:20.661Z,25.16
2023-03-15T21:14:37.154Z,25.11
2023-03-15T21:15:36.863Z,25.11
2023-03-15T21:16:37.054Z,25.11
2023-03-15T21:17:36.903Z,25.11
2023-03-15T21:23:54.346Z,25.10
2023-03-15T21:24:56.155Z,25.09
2023-03-15T21:31:34.316Z,25.07
2023-03-15T21:32:33.888Z,25.06
2023-03-15T21:33:33.998Z,25.09
2023-03-15T21:34:33.948Z,25.10
2023-03-15T21:35:33.972Z,25.07
2023-03-15T21:37:53.759Z,25.05
2023-03-15T21:40:12.065Z,25.05
2023-03-15T21:41:11.790Z,25.06
2023-03-15T21:42:11.795Z,25.07
2023-03-15T21:43:11.804Z,25.06
2023-03-15T21:44:11.766Z,25.09
2023-03-15T21:45:11.814Z,25.10
2023-03-15T21:46:12.092Z,25.09
2023-03-15T21:47:11.810Z,25.09
2023-03-15T21:48:11.964Z,25.10
2023-03-15T21:49:11.716Z,25.10
2023-03-15T21:50:11.740Z,25.13
2023-03-15T21:51:14.095Z,25.11
2023-03-15T21:52:11.654Z,25.11
2023-03-15T21:53:11.672Z,25.11
2023-03-15T21:54:11.661Z,25.13
2023-03-15T21:55:11.684Z,25.14
2023-03-15T21:56:11.656Z,25.14
2023-03-15T21:57:11.660Z,25.14
2023-03-15T21:58:11.732Z,25.14
2023-03-15T22:01:10.737Z,25.11
2023-03-15T22:03:28.247Z,25.13
2023-03-15T22:04:28.420Z,25.16
2023-03-15T22:07:05.811Z,25.10
2023-03-15T22:08:05.598Z,25.10
2023-03-15T22:11:57.283Z,25.07
2023-03-15T22:12:57.338Z,25.09
2023-03-15T22:13:57.157Z,25.10
2023-03-15T22:16:16.854Z,25.09
2023-03-15T22:19:12.783Z,25.06
2023-03-15T22:22:38.073Z,25.07
2023-03-15T22:23:38.087Z,25.07
2023-03-15T22:29:09.049Z,25.06
2023-03-15T22:33:04.434Z,25.06
2023-03-15T22:34:04.910Z,25.06
2023-03-15T22:35:04.023Z,25.06
2023-03-15T22:36:04.098Z,25.06
2023-03-15T22:37:04.064Z,25.06
2023-03-15T22:38:04.103Z,25.07
2023-03-15T22:39:04.181Z,25.07
2023-03-15T22:40:04.173Z,25.07
2023-03-15T22:41:04.203Z,25.07
2023-03-15T22:42:04.203Z,25.09
2023-03-15T22:43:07.037Z,25.10
2023-03-15T22:46:46.954Z,25.09
2023-03-15T22:49:05.731Z,25.06
2023-03-15T22:50:05.821Z,25.07
